Time;durP1;ratioP1;P1;durP2;ratioP2;P2;SDS_P1;SDS_P2;PMS_P1;PMS_P2;Temp;Humidity;BMP_temperature;BMP_pressure;BME280_temperature;BME280_humidity;BME280_pressure;Samples;Min_cycle;Max_cycle;Signal;HPM_P1;HPM_P2
2020/12/17 00:02:43;;;;;;;15.23;9.67;;;10.40;99.90;;;8.49;100.00;101128.28;4961219;28;20282;-81
2020/12/17 00:05:28;;;;;;;14.57;10.10;;;10.40;99.90;;;8.53;100.00;101127.38;4961825;28;20320;-80
2020/12/17 00:08:18;;;;;;;13.13;9.33;;;10.30;99.90;;;8.52;100.00;101113.66;4950150;28;20586;-81
2020/12/17 00:11:03;;;;;;;13.53;9.63;;;10.30;99.90;;;8.42;100.00;101120.59;4942877;28;20268;-81
2020/12/17 00:13:48;;;;;;;12.67;9.77;;;10.30;99.90;;;8.52;100.00;101116.22;4956680;28;20242;-81
2020/12/17 00:16:33;;;;;;;13.20;9.90;;;10.30;99.90;;;8.48;100.00;101118.88;4961206;28;20718;-81
2020/12/17 00:19:20;;;;;;;13.17;9.43;;;10.30;99.90;;;8.54;100.00;101116.22;4958207;28;20267;-81
2020/12/17 00:22:05;;;;;;;11.37;9.47;;;10.30;99.90;;;8.59;100.00;101109.25;4956931;28;20218;-81
2020/12/17 00:24:50;;;;;;;13.30;8.83;;;10.30;99.90;;;8.63;100.00;101113.50;4951290;28;20254;-80
2020/12/17 00:27:37;;;;;;;11.20;8.87;;;10.30;99.90;;;8.76;100.00;101121.94;4958843;28;20683;-80
2020/12/17 00:30:22;;;;;;;12.60;8.50;;;10.20;99.90;;;8.74;100.00;101113.34;4962020;28;20210;-81
2020/12/17 00:33:07;;;;;;;9.97;7.17;;;10.20;99.90;;;8.74;100.00;101103.91;4961297;28;20210;-81
2020/12/17 00:35:55;;;;;;;12.93;8.70;;;10.20;99.90;;;8.83;100.00;101121.00;4962449;28;20257;-82
2020/12/17 00:38:40;;;;;;;13.33;9.47;;;10.20;99.90;;;8.90;100.00;101126.91;4951259;29;20278;-80
2020/12/17 00:41:26;;;;;;;12.23;8.37;;;10.10;99.90;;;8.85;100.00;101128.72;4960661;28;20202;-81
2020/12/17 00:44:11;;;;;;;10.73;8.50;;;10.20;99.90;;;8.95;100.00;101128.56;4962455;28;20229;-79
2020/12/17 00:46:56;;;;;;;10.90;9.10;;;10.20;99.90;;;8.87;100.00;101126.97;4960099;28;20213;-81
2020/12/17 00:49:41;;;;;;;11.90;8.50;;;10.20;99.90;;;8.69;100.00;101122.91;4960766;28;20207;-80
2020/12/17 00:52:27;;;;;;;9.60;8.23;;;10.20;99.90;;;8.39;100.00;101104.34;4951399;28;20300;-80
2020/12/17 00:55:13;;;;;;;12.27;8.40;;;10.20;99.90;;;8.32;100.00;101116.44;4955664;28;20237;-80
2020/12/17 00:57:58;;;;;;;12.00;9.60;;;10.30;99.90;;;8.36;100.00;101125.00;4961892;28;20233;-80
2020/12/17 01:00:43;;;;;;;11.67;8.83;;;10.20;99.90;;;8.38;100.00;101129.25;4950634;28;20245;-81
2020/12/17 01:03:28;;;;;;;12.20;9.47;;;10.30;99.90;;;8.45;100.00;101121.50;4957595;28;20205;-81
2020/12/17 01:06:13;;;;;;;13.50;9.97;;;10.30;99.90;;;8.58;100.00;101120.47;4961462;28;20241;-80
2020/12/17 01:08:59;;;;;;;12.13;8.67;;;10.30;99.90;;;8.65;100.00;101116.94;4959848;28;20214;-81
2020/12/17 01:11:44;;;;;;;12.07;9.47;;;10.20;99.90;;;8.64;100.00;101120.38;4963037;28;20825;-82
2020/12/17 01:14:29;;;;;;;12.87;9.07;;;10.20;99.90;;;8.58;100.00;101117.88;4966426;28;20774;-81
2020/12/17 01:17:15;;;;;;;12.80;8.50;;;10.20;99.90;;;8.55;100.00;101120.50;4958771;28;20218;-80
2020/12/17 01:20:01;;;;;;;14.63;9.70;;;10.20;99.90;;;8.58;100.00;101110.16;4960164;28;20206;-82
2020/12/17 01:22:46;;;;;;;13.40;9.77;;;10.20;99.90;;;8.65;100.00;101104.03;4958601;28;20231;-80
2020/12/17 01:25:32;;;;;;;15.93;10.27;;;10.20;99.90;;;8.61;100.00;101104.94;4958828;28;20241;-81
2020/12/17 01:28:17;;;;;;;14.83;9.87;;;10.20;99.90;;;8.71;100.00;101111.69;4960411;28;20255;-81
2020/12/17 01:31:06;;;;;;;13.43;8.33;;;10.20;99.90;;;8.81;100.00;101109.84;4959099;28;20213;-81
2020/12/17 01:33:51;;;;;;;11.80;8.93;;;10.20;99.90;;;8.82;100.00;101108.97;4959395;28;20234;-80
2020/12/17 01:36:38;;;;;;;10.87;8.83;;;10.20;99.90;;;8.82;100.00;101108.97;4958789;28;20210;-80
2020/12/17 01:39:24;;;;;;;11.17;8.50;;;10.20;99.90;;;8.86;100.00;101109.75;4945759;28;20226;-82
2020/12/17 01:42:11;;;;;;;10.20;8.30;;;10.20;99.90;;;8.86;100.00;101102.03;4967056;28;20521;-81
2020/12/17 01:44:55;;;;;;;10.57;8.60;;;10.20;99.90;;;8.93;100.00;101107.09;4959012;28;20225;-82
2020/12/17 01:47:47;;;;;;;12.57;9.07;;;10.20;99.90;;;8.86;100.00;101105.47;4955724;28;20218;-81
2020/12/17 01:50:32;;;;;;;10.83;8.30;;;10.20;99.90;;;8.77;100.00;101114.19;4960023;28;20205;-81
2020/12/17 01:53:17;;;;;;;11.87;8.03;;;10.20;99.90;;;8.57;100.00;101113.59;4948559;28;20210;-80
2020/12/17 01:56:06;;;;;;;10.67;8.33;;;10.20;99.90;;;8.39;100.00;101120.63;4958860;28;20262;-81
2020/12/17 01:59:03;;;;;;;13.90;9.77;;;10.30;99.90;;;8.32;100.00;101118.16;4956877;28;20233;-81
2020/12/17 02:01:50;;;;;;;11.27;8.33;;;10.20;99.90;;;8.34;100.00;101119.84;4950205;28;20614;-80
2020/12/17 02:04:36;;;;;;;11.53;7.93;;;10.20;99.90;;;8.24;100.00;101120.84;4962053;28;20234;-81
2020/12/17 02:07:21;;;;;;;14.10;9.60;;;10.20;99.90;;;8.12;100.00;101119.25;4952168;28;20262;-81
2020/12/17 02:10:06;;;;;;;12.60;8.77;;;10.20;99.90;;;8.11;100.00;101117.53;4947305;28;20300;-81
2020/12/17 02:12:52;;;;;;;14.73;9.57;;;10.20;99.90;;;8.16;100.00;101109.75;4952236;28;20210;-80
2020/12/17 02:15:38;;;;;;;12.60;9.90;;;10.20;99.90;;;8.13;100.00;101110.63;4961021;28;20301;-81
2020/12/17 02:18:23;;;;;;;15.87;9.93;;;10.20;99.90;;;8.05;100.00;101113.28;4947285;28;20279;-80
2020/12/17 02:21:09;;;;;;;13.37;9.40;;;10.20;99.90;;;8.04;100.00;101113.28;4959150;28;20675;-81
2020/12/17 02:23:55;;;;;;;13.73;10.27;;;10.20;99.90;;;7.98;100.00;101116.78;4948792;28;20245;-80
2020/12/17 02:26:41;;;;;;;13.50;9.60;;;10.20;99.90;;;8.00;100.00;101109.91;4962369;28;20279;-80
2020/12/17 02:29:26;;;;;;;12.47;9.43;;;10.20;99.90;;;8.06;100.00;101117.56;4961927;28;20326;-81
2020/12/17 02:32:11;;;;;;;13.70;9.97;;;10.20;99.90;;;8.10;100.00;101114.97;4957094;28;20206;-80
2020/12/17 02:34:57;;;;;;;10.53;8.23;;;10.20;99.90;;;8.13;100.00;101112.34;4947006;28;20254;-81
2020/12/17 02:37:42;;;;;;;13.53;10.23;;;10.10;99.90;;;8.23;100.00;101111.38;4955479;28;20631;-81
2020/12/17 02:40:27;;;;;;;12.87;11.10;;;10.10;99.90;;;8.34;100.00;101109.53;4959113;28;20262;-80
2020/12/17 02:43:14;;;;;;;15.43;11.07;;;10.10;99.90;;;8.32;100.00;101106.13;4959220;28;20265;-80
2020/12/17 02:45:59;;;;;;;11.87;10.10;;;10.10;99.90;;;8.29;100.00;101103.56;4959160;28;20254;-80
2020/12/17 02:48:48;;;;;;;15.30;10.60;;;10.10;99.90;;;8.28;100.00;101103.59;4959971;28;20214;-80
2020/12/17 02:51:34;;;;;;;12.50;10.27;;;10.10;99.90;;;8.24;100.00;101101.06;4960380;28;20291;-80
2020/12/17 02:54:19;;;;;;;13.00;10.67;;;10.10;99.90;;;8.22;100.00;101096.78;4962431;28;20226;-80
2020/12/17 02:57:04;;;;;;;14.23;9.50;;;10.10;99.90;;;8.08;100.00;101090.06;4957262;28;20239;-79
2020/12/17 02:59:50;;;;;;;14.47;9.23;;;10.00;99.90;;;8.08;100.00;101090.06;4971524;28;20210;-78
2020/12/17 03:02:35;;;;;;;12.60;9.63;;;10.00;99.90;;;8.03;100.00;101093.53;4975924;28;20417;-80
2020/12/17 03:05:21;;;;;;;13.07;10.30;;;10.00;99.90;;;8.08;100.00;101089.22;4975841;28;20229;-79
2020/12/17 03:08:06;;;;;;;13.97;10.23;;;10.10;99.90;;;8.15;100.00;101105.44;4975090;28;20730;-78
2020/12/17 03:10:51;;;;;;;14.97;10.67;;;10.00;99.90;;;8.23;100.00;101099.34;4961816;28;20210;-80
2020/12/17 03:13:36;;;;;;;11.90;10.37;;;10.00;99.90;;;8.24;100.00;101095.06;4975961;28;20233;-79
2020/12/17 03:16:23;;;;;;;14.30;9.50;;;10.00;99.90;;;8.32;100.00;101100.97;4974576;28;20213;-79
2020/12/17 03:19:08;;;;;;;13.37;9.00;;;10.00;99.90;;;8.40;100.00;101091.44;4967956;28;20206;-79
2020/12/17 03:21:54;;;;;;;11.87;8.77;;;10.10;99.90;;;8.40;100.00;101093.13;4955088;28;20845;-79
2020/12/17 03:24:39;;;;;;;13.33;9.20;;;10.00;99.90;;;8.41;100.00;101084.53;4972079;28;20653;-78
2020/12/17 03:27:24;;;;;;;11.67;9.13;;;10.00;99.90;;;8.40;100.00;101086.28;4968631;28;20214;-80
2020/12/17 03:30:09;;;;;;;12.07;10.00;;;10.10;99.90;;;8.46;100.00;101084.50;4959427;28;20210;-78
2020/12/17 03:32:56;;;;;;;13.77;9.93;;;10.10;99.90;;;8.50;100.00;101091.34;4960823;28;20206;-78
2020/12/17 03:35:41;;;;;;;14.60;9.50;;;10.10;99.90;;;8.52;100.00;101087.88;4972879;28;20253;-79
2020/12/17 03:38:26;;;;;;;11.23;8.90;;;10.10;99.90;;;8.55;100.00;101094.72;4950256;28;20217;-79
2020/12/17 03:41:12;;;;;;;12.93;10.13;;;10.10;99.90;;;8.52;100.00;101090.44;4960364;28;20201;-78
2020/12/17 03:43:57;;;;;;;10.53;8.17;;;10.10;99.90;;;8.48;100.00;101082.78;4974214;28;20246;-80
2020/12/17 03:46:42;;;;;;;12.97;9.50;;;10.10;99.90;;;8.41;100.00;101092.25;4961560;28;20291;-80
2020/12/17 03:49:28;;;;;;;15.03;10.20;;;10.10;99.90;;;8.34;100.00;101086.34;4961913;28;20592;-80
2020/12/17 03:52:14;;;;;;;14.67;9.73;;;10.10;99.90;;;8.29;100.00;101090.69;4960434;28;20213;-80
2020/12/17 03:54:59;;;;;;;13.50;10.60;;;10.10;99.90;;;8.22;100.00;101081.31;4960725;28;20261;-81
2020/12/17 03:57:44;;;;;;;15.90;10.50;;;10.20;99.90;;;8.20;100.00;101081.34;4962533;28;20229;-80
2020/12/17 04:00:30;;;;;;;15.77;11.40;;;10.20;99.90;;;8.22;100.00;101084.78;4961757;28;20210;-80
2020/12/17 04:03:15;;;;;;;14.20;10.10;;;10.20;99.90;;;8.21;100.00;101079.63;4961279;28;20257;-81
2020/12/17 04:06:01;;;;;;;11.10;9.33;;;10.20;99.90;;;8.20;100.00;101083.06;4961100;28;20218;-80
2020/12/17 04:08:46;;;;;;;16.30;11.07;;;10.20;99.90;;;8.26;100.00;101083.84;4958204;28;20214;-80
2020/12/17 04:11:31;;;;;;;15.27;11.43;;;10.20;99.90;;;8.27;100.00;101089.88;4960567;28;20269;-80
2020/12/17 04:14:16;;;;;;;16.30;11.73;;;10.20;99.90;;;8.33;100.00;101084.63;4961275;28;20246;-82
2020/12/17 04:17:03;;;;;;;18.40;11.93;;;10.20;99.90;;;8.30;100.00;101079.50;4959750;28;20218;-81
2020/12/17 04:19:48;;;;;;;15.40;11.33;;;10.20;99.90;;;8.26;100.00;101094.16;4960485;28;20210;-81
2020/12/17 04:22:34;;;;;;;16.83;11.87;;;10.20;99.90;;;8.28;100.00;101085.56;4961783;28;20215;-81
2020/12/17 04:25:19;;;;;;;14.23;9.83;;;10.20;99.90;;;8.23;100.00;101088.19;4960422;28;20266;-81
2020/12/17 04:28:04;;;;;;;16.03;10.90;;;10.20;99.90;;;8.19;100.00;101081.34;4961287;28;20238;-81
2020/12/17 04:30:50;;;;;;;14.03;10.13;;;10.30;99.90;;;8.23;100.00;101085.59;4957630;28;20210;-80
2020/12/17 04:33:35;;;;;;;12.17;10.67;;;10.20;99.90;;;8.24;100.00;101079.59;4958929;28;20281;-80
2020/12/17 04:36:20;;;;;;;16.40;11.23;;;10.20;99.90;;;8.25;100.00;101076.13;4960091;28;20226;-80
2020/12/17 04:39:07;;;;;;;15.50;10.53;;;10.30;99.90;;;8.26;100.00;101085.56;4958388;28;20265;-80
2020/12/17 04:41:53;;;;;;;16.37;10.77;;;10.30;99.90;;;8.27;100.00;101084.72;4958431;28;20293;-80
2020/12/17 04:44:39;;;;;;;15.67;10.63;;;10.30;99.90;;;8.26;100.00;101093.31;4960962;28;20226;-81
2020/12/17 04:47:29;;;;;;;18.17;10.67;;;10.30;99.90;;;8.23;100.00;101085.59;4952277;28;20253;-80
2020/12/17 04:50:16;;;;;;;14.37;11.27;;;10.30;99.90;;;8.26;100.00;101099.28;4949788;28;20218;-80
2020/12/17 04:53:04;;;;;;;15.60;11.23;;;10.30;99.90;;;8.28;100.00;101103.59;4959580;28;20290;-80
2020/12/17 04:55:52;;;;;;;14.77;11.30;;;10.30;99.90;;;8.30;100.00;101104.41;4960299;28;20202;-80
2020/12/17 04:58:46;;;;;;;16.47;10.57;;;10.30;99.90;;;8.28;100.00;101101.00;4940353;28;20335;-80
2020/12/17 05:01:33;;;;;;;14.47;10.57;;;10.30;99.90;;;8.31;100.00;101112.16;4957532;28;20254;-80
2020/12/17 05:04:21;;;;;;;14.80;10.90;;;10.30;99.90;;;8.31;100.00;101106.13;4959426;28;20242;-80
2020/12/17 05:07:09;;;;;;;14.27;11.03;;;10.30;99.90;;;8.31;100.00;101111.28;4959179;28;20210;-81
2020/12/17 05:09:55;;;;;;;17.20;10.80;;;10.30;99.90;;;8.30;100.00;101110.44;4956531;28;20222;-80
2020/12/17 05:12:40;;;;;;;14.03;11.80;;;10.30;99.90;;;8.31;100.00;101112.16;4958907;28;20290;-80
2020/12/17 05:15:26;;;;;;;18.23;10.80;;;10.30;99.90;;;8.32;100.00;101118.16;4959547;28;20278;-81
2020/12/17 05:18:11;;;;;;;19.73;11.53;;;10.30;99.90;;;8.32;100.00;101121.56;4954901;28;20234;-80
2020/12/17 05:20:57;;;;;;;18.03;12.83;;;10.30;99.90;;;8.33;100.00;101125.88;4952512;28;20242;-81
2020/12/17 05:23:44;;;;;;;14.70;11.47;;;10.30;99.90;;;8.35;100.00;101124.13;4955833;28;20237;-80
2020/12/17 05:26:30;;;;;;;16.63;11.70;;;10.30;99.90;;;8.37;100.00;101130.13;4955002;28;20226;-81
2020/12/17 05:29:17;;;;;;;14.43;10.73;;;10.30;99.90;;;8.35;100.00;101139.59;4960338;28;20285;-80
2020/12/17 05:32:02;;;;;;;15.40;11.43;;;10.30;99.90;;;8.36;100.00;101143.03;4961412;28;20217;-80
2020/12/17 05:34:49;;;;;;;15.60;12.37;;;10.30;99.90;;;8.38;100.00;101146.44;4962450;28;20249;-81
2020/12/17 05:37:34;;;;;;;13.60;11.13;;;10.30;99.90;;;8.36;100.00;101146.47;4961414;28;20214;-81
2020/12/17 05:40:20;;;;;;;17.00;11.67;;;10.40;99.90;;;8.35;100.00;101144.75;4959238;28;20253;-82
2020/12/17 05:43:06;;;;;;;15.13;11.50;;;10.40;99.90;;;8.35;100.00;101149.06;4952602;28;20214;-81
2020/12/17 05:45:52;;;;;;;13.43;9.57;;;10.40;99.90;;;8.35;100.00;101156.78;4958559;28;20209;-83
2020/12/17 05:48:37;;;;;;;12.97;9.87;;;10.40;99.90;;;8.35;100.00;101152.47;4950959;28;20218;-81
2020/12/17 05:51:22;;;;;;;18.50;11.87;;;10.40;99.90;;;8.35;100.00;101160.22;4945033;28;20222;-80
2020/12/17 05:54:20;;;;;;;14.77;10.10;;;10.40;99.90;;;8.37;100.00;101158.47;4955543;28;20237;-80
2020/12/17 05:57:09;;;;;;;13.30;11.30;;;10.40;99.90;;;8.36;100.00;101155.94;4955300;28;20254;-81
2020/12/17 05:59:56;;;;;;;15.40;11.00;;;10.40;99.90;;;8.37;100.00;101160.19;4948894;28;20218;-81
2020/12/17 06:02:42;;;;;;;15.73;12.23;;;10.40;99.90;;;8.37;100.00;101173.94;4955525;28;20209;-81
2020/12/17 06:05:30;;;;;;;15.93;11.03;;;10.40;99.90;;;8.36;100.00;101173.97;4938901;28;20329;-80
2020/12/17 06:08:31;;;;;;;14.97;11.70;;;10.40;99.90;;;8.34;100.00;101181.72;4955351;28;20206;-80
2020/12/17 06:11:15;;;;;;;14.57;12.47;;;10.40;99.90;;;8.35;100.00;101192.88;4952266;28;20311;-79
2020/12/17 06:14:01;;;;;;;16.40;12.03;;;10.40;99.90;;;8.36;100.00;101192.84;4953508;28;20230;-80
2020/12/17 06:16:53;;;;;;;15.27;13.33;;;10.40;99.90;;;8.35;100.00;101196.28;4956032;28;20242;-81
2020/12/17 06:19:42;;;;;;;17.13;12.30;;;10.40;99.90;;;8.33;100.00;101199.78;4949342;28;20235;-81
2020/12/17 06:22:27;;;;;;;17.40;12.93;;;10.40;99.90;;;8.32;100.00;101211.78;4945376;28;20206;-82
2020/12/17 06:25:16;;;;;;;17.97;14.00;;;10.40;99.90;;;8.33;100.00;101213.50;4946979;28;20306;-81
2020/12/17 06:28:02;;;;;;;16.30;13.00;;;10.40;99.90;;;8.35;100.00;101216.91;4942085;28;20207;-80
2020/12/17 06:30:49;;;;;;;15.40;12.57;;;10.40;99.90;;;8.33;100.00;101231.56;4947346;28;20690;-81
2020/12/17 06:33:37;;;;;;;16.70;13.17;;;10.40;99.90;;;8.33;100.00;101241.03;4947078;28;20219;-81
2020/12/17 06:36:37;;;;;;;18.33;15.20;;;10.40;99.90;;;8.32;100.00;101245.31;4941595;28;20287;-81
2020/12/17 06:39:28;;;;;;;18.87;13.87;;;10.40;99.90;;;8.32;100.00;101239.31;4950063;28;20644;-82
2020/12/17 06:42:33;;;;;;;17.73;14.03;;;10.40;99.90;;;8.30;100.00;101256.50;4943749;28;20221;-82
2020/12/17 06:45:25;;;;;;;18.60;14.97;;;10.40;99.90;;;8.27;100.00;101265.13;4950724;28;20261;-82
2020/12/17 06:48:32;;;;;;;19.13;15.97;;;10.40;99.90;;;8.25;100.00;101278.03;4954133;28;20695;-82
2020/12/17 06:51:34;;;;;;;17.53;14.43;;;10.40;99.90;;;8.22;100.00;101279.75;4951913;28;20227;-81
2020/12/17 06:54:39;;;;;;;17.37;14.43;;;10.40;99.90;;;8.21;100.00;101280.66;4948885;28;20229;-81
2020/12/17 06:57:36;;;;;;;17.60;14.33;;;10.40;99.90;;;8.19;100.00;101288.41;4943105;28;20717;-81
2020/12/17 07:00:28;;;;;;;18.83;15.70;;;10.40;99.90;;;8.16;100.00;101303.00;4945760;28;20646;-82
2020/12/17 07:03:45;;;;;;;18.67;14.53;;;10.30;99.90;;;8.19;100.00;101308.13;4957584;28;20206;-81
2020/12/17 07:06:31;;;;;;;19.40;16.63;;;10.30;99.90;;;8.20;100.00;101309.84;4958361;28;20324;-82
2020/12/17 07:09:30;;;;;;;19.70;15.90;;;10.30;99.90;;;8.16;100.00;101314.16;4959526;28;20214;-81
2020/12/17 07:12:43;;;;;;;17.70;15.20;;;10.30;99.90;;;8.17;100.00;101321.03;4952912;28;20624;-82
2020/12/17 07:15:35;;;;;;;21.37;16.17;;;10.30;99.90;;;8.14;100.00;101325.38;4953056;28;20703;-81
2020/12/17 07:18:25;;;;;;;21.13;16.37;;;10.30;99.90;;;8.15;100.00;101324.47;4949768;28;20766;-79
2020/12/17 07:21:10;;;;;;;21.93;17.50;;;10.30;99.90;;;8.15;100.00;101329.63;4949464;28;20214;-79
2020/12/17 07:23:56;;;;;;;20.10;15.30;;;10.30;99.90;;;8.15;100.00;101342.53;4945429;28;20233;-79
2020/12/17 07:26:44;;;;;;;22.53;19.63;;;10.30;99.90;;;8.17;100.00;101345.97;4956225;28;20210;-77
2020/12/17 07:29:41;;;;;;;23.87;18.70;;;10.20;99.90;;;8.23;100.00;101351.91;4956374;28;20626;-79
2020/12/17 07:32:30;;;;;;;24.33;19.37;;;10.20;99.90;;;8.23;100.00;101353.66;4945704;28;20250;-78
2020/12/17 07:35:22;;;;;;;25.03;20.23;;;10.20;99.90;;;8.21;100.00;101363.97;4952462;28;20302;-79
2020/12/17 07:38:07;;;;;;;24.17;20.57;;;10.30;99.90;;;8.18;100.00;101361.41;4958797;28;20310;-79
2020/12/17 07:40:54;;;;;;;22.67;18.97;;;10.20;99.90;;;8.19;100.00;101360.56;4955404;28;20635;-79
2020/12/17 07:43:42;;;;;;;21.27;18.10;;;10.20;99.90;;;8.21;100.00;101363.13;4958931;28;20229;-79
2020/12/17 07:46:38;;;;;;;19.40;16.30;;;10.20;99.90;;;8.14;100.00;101366.59;4957844;28;20694;-78
2020/12/17 07:49:26;;;;;;;21.50;17.73;;;10.20;99.90;;;8.18;100.00;101381.16;4946611;28;20206;-77
2020/12/17 07:52:30;;;;;;;20.40;17.70;;;10.20;99.90;;;8.22;100.00;101385.44;4957896;28;20718;-79
2020/12/17 07:55:16;;;;;;;19.83;15.70;;;10.20;99.90;;;8.22;100.00;101395.72;4951936;28;20257;-80
2020/12/17 07:58:02;;;;;;;18.47;14.70;;;10.20;99.90;;;8.24;100.00;101409.50;4956918;28;20221;-80
2020/12/17 08:00:47;;;;;;;17.80;14.60;;;10.20;99.90;;;8.27;100.00;101401.72;4955971;28;20209;-80
2020/12/17 08:03:41;;;;;;;19.67;15.23;;;10.20;99.90;;;8.29;100.00;101412.88;4956121;28;20206;-80
2020/12/17 08:06:28;;;;;;;18.90;14.23;;;10.20;99.90;;;8.28;100.00;101420.63;4951123;28;20203;-80
2020/12/17 08:09:13;;;;;;;22.07;14.60;;;10.20;99.90;;;8.24;100.00;101419.81;4938032;28;20278;-80
2020/12/17 08:11:59;;;;;;;18.37;15.17;;;10.20;99.90;;;8.26;100.00;101423.22;4946360;28;20739;-80
2020/12/17 08:14:44;;;;;;;18.53;15.10;;;10.20;99.90;;;8.23;100.00;101428.38;4952803;28;20428;-80
2020/12/17 08:17:30;;;;;;;18.87;14.47;;;10.20;99.90;;;8.26;100.00;101428.38;4953963;28;20229;-79
2020/12/17 08:20:15;;;;;;;20.03;15.17;;;10.20;99.90;;;8.27;100.00;101430.09;4954218;28;20237;-80
2020/12/17 08:23:00;;;;;;;20.33;16.10;;;10.20;99.90;;;8.30;100.00;101442.94;4952741;28;20583;-80
2020/12/17 08:25:46;;;;;;;16.07;13.17;;;10.20;99.90;;;8.32;100.00;101442.94;4953052;28;20221;-80
2020/12/17 08:28:36;;;;;;;19.37;14.30;;;10.20;99.90;;;8.34;100.00;101436.91;4940241;28;20711;-80
2020/12/17 08:31:25;;;;;;;17.70;13.83;;;10.20;99.90;;;8.36;100.00;101440.34;4952044;28;20621;-79
2020/12/17 08:34:11;;;;;;;18.07;13.83;;;10.20;99.90;;;8.37;100.00;101441.19;4938060;28;20226;-80
2020/12/17 08:36:56;;;;;;;20.10;15.57;;;10.20;99.90;;;8.40;100.00;101447.19;4952636;28;20553;-81
2020/12/17 08:39:42;;;;;;;19.23;15.80;;;10.20;99.90;;;8.39;100.00;101442.88;4954544;28;20277;-80
2020/12/17 08:42:34;;;;;;;19.33;14.90;;;10.20;99.90;;;8.40;100.00;101454.91;4943306;28;20225;-80
2020/12/17 08:45:21;;;;;;;17.57;14.17;;;10.20;99.90;;;8.48;100.00;101452.31;4956922;28;20222;-80
2020/12/17 08:48:16;;;;;;;18.10;13.27;;;10.20;99.90;;;8.45;100.00;101454.06;4955765;28;20229;-80
2020/12/17 08:51:01;;;;;;;15.23;11.60;;;10.20;99.90;;;8.53;100.00;101447.13;4955053;28;20370;-81
2020/12/17 08:53:47;;;;;;;17.40;13.40;;;10.20;99.90;;;8.52;100.00;101447.97;4952095;28;20350;-81
2020/12/17 08:56:32;;;;;;;15.27;13.20;;;10.20;99.90;;;8.57;100.00;101459.97;4955148;28;20286;-81
2020/12/17 08:59:18;;;;;;;14.23;11.60;;;10.20;99.90;;;8.58;100.00;101451.38;4959082;28;20313;-81
2020/12/17 09:02:04;;;;;;;15.97;13.00;;;10.30;99.90;;;8.47;100.00;101455.75;4959294;28;20281;-81
2020/12/17 09:04:59;;;;;;;16.77;13.33;;;10.30;99.90;;;8.55;100.00;101464.31;4955550;28;20225;-81
2020/12/17 09:07:53;;;;;;;17.33;12.67;;;10.30;99.90;;;8.67;100.00;101460.78;4959567;28;20298;-82
2020/12/17 09:10:38;;;;;;;17.47;12.30;;;10.30;99.90;;;8.68;100.00;101467.66;4959085;28;20627;-80
2020/12/17 09:13:23;;;;;;;15.03;11.60;;;10.30;99.90;;;8.69;100.00;101469.34;4958526;28;20290;-81
2020/12/17 09:16:09;;;;;;;14.80;11.27;;;10.30;99.90;;;8.72;100.00;101476.22;4958411;28;20222;-80
2020/12/17 09:18:55;;;;;;;14.20;10.37;;;10.40;99.90;;;8.72;100.00;101479.66;4958116;28;20653;-81
2020/12/17 09:21:58;;;;;;;15.93;10.67;;;10.40;99.90;;;8.74;100.00;101506.31;4951309;28;20222;-82
2020/12/17 09:24:54;;;;;;;13.00;9.57;;;10.40;99.90;;;8.71;100.00;101498.59;4959002;28;20586;-82
2020/12/17 09:27:40;;;;;;;13.77;9.60;;;10.50;99.90;;;8.68;100.00;101506.34;4960270;28;20255;-81
2020/12/17 09:30:32;;;;;;;13.13;9.77;;;10.50;99.90;;;8.74;100.00;101511.47;4949935;28;20783;-81
2020/12/17 09:33:18;;;;;;;11.63;9.40;;;10.50;99.90;;;8.82;100.00;101513.16;4968758;28;20226;-81
2020/12/17 09:36:14;;;;;;;12.47;9.47;;;10.50;99.90;;;8.81;100.00;101514.00;4960456;28;20595;-79
2020/12/17 09:39:03;;;;;;;10.03;7.53;;;10.50;99.90;;;8.81;100.00;101514.84;4958973;28;20273;-81
2020/12/17 09:41:54;;;;;;;10.93;8.20;;;10.60;99.90;;;8.76;100.00;101520.03;4958539;28;20201;-81
2020/12/17 09:44:39;;;;;;;13.30;8.33;;;10.60;99.90;;;8.91;100.00;101521.66;4958555;28;20234;-81
2020/12/17 09:47:33;;;;;;;10.70;8.80;;;10.60;99.90;;;9.28;100.00;101511.03;4958968;28;20253;-81
2020/12/17 09:50:18;;;;;;;13.20;7.97;;;10.60;99.90;;;9.58;100.00;101514.22;4954943;28;20628;-81
2020/12/17 09:53:14;;;;;;;8.63;6.00;;;10.70;99.90;;;9.25;100.00;101531.72;4949961;28;20211;-82
2020/12/17 09:56:00;;;;;;;10.47;7.57;;;10.70;99.90;;;9.06;100.00;101525.84;4950629;28;20352;-81
2020/12/17 09:58:46;;;;;;;11.67;7.50;;;10.80;99.90;;;9.16;100.00;101536.97;4954593;28;20225;-81
2020/12/17 10:01:31;;;;;;;11.43;7.87;;;10.90;99.90;;;9.12;100.00;101540.44;4945539;28;20588;-81
2020/12/17 10:04:16;;;;;;;9.57;6.33;;;10.90;99.90;;;9.12;100.00;101536.16;4958727;28;20234;-82
2020/12/17 10:07:02;;;;;;;11.33;6.70;;;11.00;99.90;;;9.25;100.00;101531.72;4961365;28;20221;-81
2020/12/17 10:09:47;;;;;;;7.90;6.60;;;11.00;99.90;;;9.20;100.00;101537.81;4959592;28;20209;-81
2020/12/17 10:12:33;;;;;;;10.80;7.13;;;11.10;99.90;;;9.06;100.00;101549.06;4956846;28;20771;-80
2020/12/17 10:15:19;;;;;;;11.80;6.57;;;11.10;99.90;;;8.95;100.00;101553.47;4947419;28;20833;-81
2020/12/17 10:18:04;;;;;;;10.07;6.07;;;11.20;99.90;;;9.01;100.00;101545.69;4958809;28;20293;-82
2020/12/17 10:20:49;;;;;;;9.53;5.93;;;11.20;99.90;;;9.04;100.00;101548.25;4959750;28;20210;-82
2020/12/17 10:23:34;;;;;;;9.00;6.50;;;11.20;99.90;;;9.04;100.00;101557.72;4961652;28;20580;-82
2020/12/17 10:26:19;;;;;;;7.53;5.47;;;11.40;99.90;;;8.89;100.00;101561.25;4949227;28;20230;-83
2020/12/17 10:29:05;;;;;;;10.33;6.03;;;11.20;99.90;;;8.75;100.00;101551.88;4961318;28;20234;-82
2020/12/17 10:31:51;;;;;;;11.20;6.13;;;11.20;99.90;;;8.75;100.00;101546.72;4959052;28;20286;-81
2020/12/17 10:34:36;;;;;;;11.00;6.53;;;11.20;99.90;;;8.89;100.00;101551.78;4956393;28;20862;-82
2020/12/17 10:37:21;;;;;;;10.97;6.30;;;11.20;99.90;;;9.07;100.00;101557.69;4947805;28;20275;-82
2020/12/17 10:40:09;;;;;;;12.60;6.67;;;11.10;99.90;;;8.89;100.00;101561.25;4957233;28;20253;-83
2020/12/17 10:42:54;;;;;;;13.00;6.13;;;11.10;99.90;;;8.95;100.00;101568.97;4952297;28;20237;-83
2020/12/17 10:45:40;;;;;;;11.00;6.10;;;11.10;99.90;;;9.91;100.00;101562.97;4956114;28;20230;-84
2020/12/17 10:48:25;;;;;;;12.23;5.90;;;11.10;99.90;;;9.75;100.00;101557.94;4951850;28;20206;-82
2020/12/17 10:51:13;;;;;;;11.67;6.33;;;11.20;99.90;;;9.94;100.00;101553.44;4955678;28;20305;-84
2020/12/17 10:53:58;;;;;;;10.97;6.50;;;11.20;99.90;;;10.38;100.00;101559.00;4954850;28;20242;-83
2020/12/17 10:56:45;;;;;;;10.03;5.87;;;11.40;99.90;;;9.99;100.00;101553.38;5686998;23;20631;-83
2020/12/17 11:17:37;;;;;;;9.53;4.83;;;14.30;99.90;;;9.90;100.00;101569.00;5112733;28;20650;-83
2020/12/17 11:20:22;;;;;;;8.00;5.27;;;14.50;99.90;;;11.41;100.00;101554.88;5112164;28;20229;-85
2020/12/17 11:23:07;;;;;;;7.50;4.93;;;14.60;99.90;;;13.39;100.00;101549.88;5110479;28;20629;-84
2020/12/17 11:25:53;;;;;;;13.70;6.77;;;14.50;99.90;;;13.75;100.00;101536.84;5101468;28;20598;-84
2020/12/17 11:28:38;;;;;;;9.03;5.50;;;14.60;99.90;;;13.56;100.00;101544.28;5116106;28;20210;-83
2020/12/17 11:31:24;;;;;;;13.53;7.90;;;14.80;99.90;;;14.26;100.00;101543.19;5103729;28;20205;-84
2020/12/17 11:34:13;;;;;;;7.13;4.70;;;15.00;99.90;;;14.77;100.00;101534.72;5114972;28;20229;-84
2020/12/17 11:36:58;;;;;;;9.53;5.37;;;15.30;99.90;;;15.01;100.00;101553.91;5114509;28;20197;-82
2020/12/17 11:39:43;;;;;;;8.67;4.37;;;15.60;99.90;;;15.32;100.00;101562.50;5093910;28;20194;-84
2020/12/17 11:42:29;;;;;;;8.40;4.17;;;15.90;99.90;;;14.35;100.00;101569.81;5108577;28;20695;-80
2020/12/17 11:45:15;;;;;;;9.43;4.27;;;16.20;99.90;;;14.06;100.00;101577.59;5106697;28;20206;-84